Time;durP1;ratioP1;P1;durP2;ratioP2;P2;SDS_P1;SDS_P2;PMS_P1;PMS_P2;Temp;Humidity;BMP_temperature;BMP_pressure;BME280_temperature;BME280_humidity;BME280_pressure;Samples;Min_cycle;Max_cycle;Signal;HPM_P1;HPM_P2
2021/12/29 00:02:15;;;;;;;3.27;2.97;;;8.40;99.90;;;;;;5061001;28;20845;-59
2021/12/29 00:04:44;;;;;;;4.10;3.80;;;8.40;99.90;;;;;;5060986;28;20587;-60
2021/12/29 00:07:13;;;;;;;3.67;3.37;;;8.40;99.90;;;;;;5060997;28;20462;-60
2021/12/29 00:09:41;;;;;;;3.53;3.17;;;8.40;99.90;;;;;;5060610;28;20926;-61
2021/12/29 00:12:11;;;;;;;3.30;3.00;;;8.40;99.90;;;;;;5060509;28;20859;-59
2021/12/29 00:14:39;;;;;;;3.57;3.27;;;8.40;99.90;;;;;;5060477;28;20814;-62
2021/12/29 00:17:06;;;;;;;3.40;3.10;;;8.30;99.90;;;;;;5060908;28;20462;-62
2021/12/29 00:19:33;;;;;;;3.80;3.50;;;8.40;99.90;;;;;;5059957;28;20515;-62
2021/12/29 00:22:01;;;;;;;3.93;3.63;;;8.40;99.90;;;;;;5060531;28;20494;-60
2021/12/29 00:24:31;;;;;;;4.77;4.37;;;8.30;99.90;;;;;;5060644;28;20504;-61
2021/12/29 00:26:58;;;;;;;6.53;5.10;;;8.40;99.90;;;;;;5059888;28;20893;-62
2021/12/29 00:29:25;;;;;;;5.97;5.37;;;8.30;99.90;;;;;;5060161;28;20466;-59
2021/12/29 00:31:52;;;;;;;5.93;5.33;;;8.40;99.90;;;;;;5060131;28;20458;-61
2021/12/29 00:34:20;;;;;;;6.80;6.20;;;8.30;99.90;;;;;;5060424;28;20462;-61
2021/12/29 00:36:48;;;;;;;6.83;6.13;;;8.30;99.90;;;;;;5060618;28;20462;-60
2021/12/29 00:39:20;;;;;;;7.27;6.57;;;8.40;99.90;;;;;;5059977;28;20758;-61
2021/12/29 00:41:47;;;;;;;9.10;7.73;;;8.40;99.90;;;;;;5059547;28;20494;-57
2021/12/29 00:44:14;;;;;;;9.40;7.37;;;8.40;99.90;;;;;;5059547;28;21054;-60
2021/12/29 00:46:44;;;;;;;9.47;7.17;;;8.40;99.90;;;;;;5060241;28;20516;-60
2021/12/29 00:49:12;;;;;;;9.07;8.23;;;8.30;99.90;;;;;;5059728;28;20453;-60
2021/12/29 00:51:39;;;;;;;10.10;9.10;;;8.30;99.90;;;;;;5060018;28;20507;-61
2021/12/29 00:54:06;;;;;;;8.90;8.00;;;8.30;99.90;;;;;;5060093;28;20489;-61
2021/12/29 00:56:37;;;;;;;12.00;8.67;;;8.30;99.90;;;;;;5059929;28;20519;-61
2021/12/29 00:59:04;;;;;;;8.50;7.57;;;8.30;99.90;;;;;;5059812;28;20472;-60
2021/12/29 01:01:32;;;;;;;9.17;7.80;;;8.40;99.90;;;;;;5056091;28;20544;-60
2021/12/29 01:04:00;;;;;;;9.77;8.73;;;8.40;99.90;;;;;;5059236;28;20911;-59
2021/12/29 01:06:27;;;;;;;9.63;8.50;;;8.40;99.90;;;;;;5059490;28;20781;-61
2021/12/29 01:08:54;;;;;;;10.13;8.83;;;8.40;99.90;;;;;;5058167;28;20779;-59
2021/12/29 01:11:22;;;;;;;11.57;8.90;;;8.30;99.90;;;;;;5059638;28;20446;-61
2021/12/29 01:13:51;;;;;;;8.03;7.10;;;8.30;99.90;;;;;;5059290;28;20486;-60
2021/12/29 01:19:03;;;;;;;6.10;5.50;;;8.30;99.90;;;;;;5057680;28;20482;-59
2021/12/29 01:21:31;;;;;;;7.33;6.40;;;8.30;99.90;;;;;;5057349;28;20490;-58
2021/12/29 01:24:00;;;;;;;7.33;5.87;;;8.30;99.90;;;;;;5058302;28;20465;-61
2021/12/29 01:26:30;;;;;;;7.50;6.80;;;8.30;99.90;;;;;;5059525;28;20463;-58
2021/12/29 01:29:01;;;;;;;8.83;6.57;;;8.30;99.90;;;;;;5059172;28;20462;-60
2021/12/29 01:31:28;;;;;;;8.30;7.27;;;8.30;99.90;;;;;;5059158;28;20458;-59
2021/12/29 01:33:55;;;;;;;7.90;7.10;;;8.30;99.90;;;;;;5059298;28;20470;-61
2021/12/29 01:36:22;;;;;;;9.90;7.03;;;8.30;99.90;;;;;;5059273;28;20441;-61
2021/12/29 01:38:49;;;;;;;8.00;7.17;;;8.30;99.90;;;;;;5059298;28;20888;-60
2021/12/29 01:41:18;;;;;;;8.07;7.23;;;8.30;99.90;;;;;;5058896;28;20498;-61
2021/12/29 01:43:45;;;;;;;8.27;7.40;;;8.30;99.90;;;;;;5058874;28;20520;-61
2021/12/29 01:46:14;;;;;;;10.17;7.40;;;8.30;99.90;;;;;;5058927;28;20466;-60
2021/12/29 01:48:41;;;;;;;8.37;6.97;;;8.40;99.90;;;;;;5057535;28;20891;-60
2021/12/29 01:51:08;;;;;;;9.20;7.50;;;8.30;99.90;;;;;;5057572;28;20901;-60
2021/12/29 01:53:36;;;;;;;6.97;6.27;;;8.30;99.90;;;;;;5057627;28;20458;-61
2021/12/29 01:56:04;;;;;;;7.03;6.13;;;8.30;99.90;;;;;;5057489;28;20581;-60
2021/12/29 01:58:31;;;;;;;7.17;5.63;;;8.30;99.90;;;;;;5057670;28;20508;-59
2021/12/29 02:01:02;;;;;;;6.47;5.43;;;8.30;99.90;;;;;;5057001;28;20462;-61
2021/12/29 02:03:30;;;;;;;6.17;5.57;;;8.40;99.90;;;;;;5054968;28;20455;-57
2021/12/29 02:05:57;;;;;;;6.63;5.30;;;8.30;99.90;;;;;;5057425;28;20561;-61
2021/12/29 02:08:25;;;;;;;6.50;5.27;;;8.40;99.90;;;;;;5054408;28;20784;-61
2021/12/29 02:10:55;;;;;;;5.00;4.50;;;8.30;99.90;;;;;;5057436;28;20902;-62
2021/12/29 02:13:23;;;;;;;5.50;4.97;;;8.30;99.90;;;;;;5056825;28;20548;-62
2021/12/29 02:15:50;;;;;;;5.60;4.87;;;8.30;99.90;;;;;;5057297;28;20462;-61
2021/12/29 02:18:20;;;;;;;6.20;5.57;;;8.40;99.90;;;;;;5052580;28;20502;-61
2021/12/29 02:20:52;;;;;;;7.47;5.50;;;8.40;99.90;;;;;;5054406;28;20462;-61
2021/12/29 02:23:26;;;;;;;6.63;5.93;;;8.40;99.90;;;;;;5052347;28;20491;-61
2021/12/29 02:25:56;;;;;;;6.13;5.53;;;8.40;99.90;;;;;;5055074;28;20786;-61
2021/12/29 02:28:27;;;;;;;6.47;5.20;;;8.40;99.90;;;;;;5054508;28;20454;-59
2021/12/29 02:30:58;;;;;;;8.10;6.63;;;8.40;99.90;;;;;;5057458;28;20459;-59
2021/12/29 02:33:30;;;;;;;9.77;6.30;;;8.40;99.90;;;;;;5053793;28;20473;-61
2021/12/29 02:36:00;;;;;;;7.27;6.57;;;8.40;99.90;;;;;;5053115;28;20515;-60
2021/12/29 02:38:29;;;;;;;9.43;7.70;;;8.30;99.90;;;;;;5055424;28;20454;-60
2021/12/29 02:40:58;;;;;;;8.93;7.83;;;8.40;99.90;;;;;;5054728;28;20425;-59
2021/12/29 02:43:25;;;;;;;10.17;8.80;;;8.40;99.90;;;;;;5053115;28;20529;-61
2021/12/29 02:45:58;;;;;;;8.40;7.20;;;8.40;99.90;;;;;;5056579;28;20471;-61
2021/12/29 02:48:28;;;;;;;9.60;8.60;;;8.40;99.90;;;;;;5053815;28;20489;-59
2021/12/29 02:50:56;;;;;;;10.93;9.80;;;8.30;99.90;;;;;;5056245;28;20458;-61
2021/12/29 02:53:26;;;;;;;11.23;8.73;;;8.40;99.90;;;;;;5055209;28;20883;-59
2021/12/29 02:55:53;;;;;;;12.60;10.83;;;8.40;99.90;;;;;;5055276;28;20462;-60
2021/12/29 02:58:21;;;;;;;11.60;10.50;;;8.30;99.90;;;;;;5055816;28;20551;-61
2021/12/29 03:00:48;;;;;;;11.60;10.10;;;8.30;99.90;;;;;;5055892;28;20454;-60
2021/12/29 03:03:20;;;;;;;10.73;9.73;;;8.30;99.90;;;;;;5055420;28;20942;-61
2021/12/29 03:05:48;;;;;;;12.60;9.80;;;8.30;99.90;;;;;;5053593;28;20495;-61
2021/12/29 03:08:17;;;;;;;9.70;8.80;;;8.30;99.90;;;;;;5055995;28;20494;-60
2021/12/29 03:10:47;;;;;;;10.47;8.87;;;8.30;99.90;;;;;;5056139;28;20450;-61
2021/12/29 03:13:14;;;;;;;9.70;8.80;;;8.30;99.90;;;;;;5055786;28;20462;-61
2021/12/29 03:15:42;;;;;;;9.30;8.30;;;8.40;99.90;;;;;;5056066;28;20454;-59
2021/12/29 03:18:09;;;;;;;9.03;6.97;;;8.30;99.90;;;;;;5056099;28;20504;-60
2021/12/29 03:20:36;;;;;;;7.33;6.63;;;8.30;99.90;;;;;;5056166;28;20512;-61
2021/12/29 03:23:03;;;;;;;8.40;7.60;;;8.40;99.90;;;;;;5055992;28;20485;-61
2021/12/29 03:25:30;;;;;;;6.83;6.13;;;8.40;99.90;;;;;;5056013;28;20528;-57
2021/12/29 03:28:00;;;;;;;6.67;5.70;;;8.40;99.90;;;;;;5055970;28;20524;-60
2021/12/29 03:30:28;;;;;;;6.20;5.57;;;8.40;99.90;;;;;;5052561;28;20454;-59
2021/12/29 03:33:03;;;;;;;6.50;5.90;;;8.30;99.90;;;;;;5055895;28;20447;-61
2021/12/29 03:35:37;;;;;;;6.97;6.27;;;8.30;99.90;;;;;;5053528;28;20458;-61
2021/12/29 03:38:07;;;;;;;7.17;6.47;;;8.30;99.90;;;;;;5055755;28;20450;-61
2021/12/29 03:40:35;;;;;;;7.63;6.77;;;8.30;99.90;;;;;;5055853;28;20454;-60
2021/12/29 03:43:05;;;;;;;7.80;7.00;;;8.30;99.90;;;;;;5055780;28;20482;-59
2021/12/29 03:45:32;;;;;;;7.17;6.47;;;8.30;99.90;;;;;;5056062;28;20925;-59
2021/12/29 03:48:00;;;;;;;6.47;5.87;;;8.30;99.90;;;;;;5055696;28;20466;-60
2021/12/29 03:50:27;;;;;;;6.77;6.07;;;8.30;99.90;;;;;;5052700;28;20507;-60
2021/12/29 03:52:54;;;;;;;6.47;5.87;;;8.30;99.90;;;;;;5055827;28;20454;-59
2021/12/29 03:55:21;;;;;;;7.70;7.00;;;8.30;99.90;;;;;;5055711;28;20466;-60
2021/12/29 03:57:48;;;;;;;7.43;6.80;;;8.30;99.90;;;;;;5056987;28;20556;-61
2021/12/29 04:00:20;;;;;;;9.20;8.30;;;8.30;99.90;;;;;;5056776;28;20520;-60
2021/12/29 04:02:48;;;;;;;7.90;7.13;;;8.30;99.90;;;;;;5057052;28;20947;-58
2021/12/29 04:05:17;;;;;;;8.57;7.67;;;8.30;99.90;;;;;;5056215;28;20462;-59
2021/12/29 04:07:45;;;;;;;9.63;8.70;;;8.30;99.90;;;;;;5056658;28;20463;-61
2021/12/29 04:10:13;;;;;;;9.90;8.67;;;8.30;99.90;;;;;;5055750;28;20490;-61
2021/12/29 04:12:41;;;;;;;12.00;9.50;;;8.30;99.90;;;;;;5039844;28;20459;-60
2021/12/29 04:15:10;;;;;;;11.20;10.03;;;8.30;99.90;;;;;;5036581;28;20459;-56
2021/12/29 04:17:39;;;;;;;12.97;10.60;;;8.30;99.90;;;;;;5036846;28;20469;-61
2021/12/29 04:22:52;;;;;;;13.10;11.23;;;8.30;99.90;;;;;;5036460;28;20498;-61
2021/12/29 04:25:23;;;;;;;11.13;9.97;;;8.20;99.90;;;;;;5036285;28;20525;-59
2021/12/29 04:27:51;;;;;;;12.43;10.50;;;8.20;99.90;;;;;;5036384;28;20471;-59
2021/12/29 04:30:18;;;;;;;11.20;10.10;;;8.20;99.90;;;;;;5036725;28;20529;-61
2021/12/29 04:32:47;;;;;;;11.70;10.40;;;8.20;99.90;;;;;;5036620;28;20509;-61
2021/12/29 04:35:14;;;;;;;11.50;10.30;;;8.20;99.90;;;;;;5036526;28;20517;-61
2021/12/29 04:37:41;;;;;;;11.23;10.13;;;8.10;99.90;;;;;;5036123;28;20467;-60
2021/12/29 04:40:11;;;;;;;12.70;11.03;;;8.20;99.90;;;;;;5036629;28;20467;-58
2021/12/29 04:42:38;;;;;;;11.07;9.93;;;8.20;99.90;;;;;;5038547;28;20501;-61
2021/12/29 04:45:06;;;;;;;11.47;10.30;;;8.20;99.90;;;;;;5040005;28;20463;-61
2021/12/29 04:47:38;;;;;;;10.17;9.07;;;8.20;99.90;;;;;;5039735;28;20753;-60
2021/12/29 04:50:23;;;;;;;11.67;10.30;;;8.20;99.90;;;;;;5040063;28;20950;-60
2021/12/29 04:52:52;;;;;;;11.80;10.40;;;8.20;99.90;;;;;;5039842;28;20481;-61
2021/12/29 04:55:20;;;;;;;14.27;10.67;;;8.20;99.90;;;;;;5039620;28;20827;-61
2021/12/29 04:57:47;;;;;;;11.47;10.20;;;8.20;99.90;;;;;;5039749;28;20471;-61
2021/12/29 05:00:16;;;;;;;13.10;11.43;;;8.20;99.90;;;;;;5040022;28;20815;-61
2021/12/29 05:02:43;;;;;;;13.63;11.10;;;8.20;99.90;;;;;;5039986;28;20563;-59
2021/12/29 05:05:27;;;;;;;14.53;11.57;;;8.20;99.90;;;;;;5047907;28;20466;-59
2021/12/29 05:10:39;;;;;;;13.13;11.57;;;8.20;99.90;;;;;;5019813;28;20459;-61
2021/12/29 05:13:06;;;;;;;13.00;10.97;;;8.20;99.90;;;;;;5019397;28;20453;-61
2021/12/29 05:15:33;;;;;;;10.57;9.43;;;8.10;99.90;;;;;;5020005;28;20492;-60
2021/12/29 05:18:01;;;;;;;10.00;9.00;;;8.10;99.90;;;;;;5019830;28;20971;-59
2021/12/29 05:20:30;;;;;;;10.97;9.60;;;8.10;99.90;;;;;;5019833;28;20849;-59
2021/12/29 05:22:59;;;;;;;9.30;8.40;;;8.10;99.90;;;;;;5019364;28;20553;-61
2021/12/29 05:25:26;;;;;;;10.03;7.60;;;8.10;99.90;;;;;;5019392;28;20522;-61
2021/12/29 05:27:54;;;;;;;7.77;5.73;;;8.10;99.90;;;;;;5019656;28;20464;-59
2021/12/29 05:30:21;;;;;;;6.90;6.10;;;8.00;99.90;;;;;;5019895;28;20470;-60
2021/12/29 05:32:49;;;;;;;6.97;6.33;;;8.00;99.90;;;;;;5019608;28;20460;-61
2021/12/29 05:35:17;;;;;;;6.20;5.60;;;8.00;99.90;;;;;;5019071;28;20463;-59
2021/12/29 05:37:45;;;;;;;5.93;5.33;;;8.00;99.90;;;;;;5019166;28;20526;-60
2021/12/29 05:40:15;;;;;;;7.00;5.80;;;8.00;99.90;;;;;;5019411;28;20470;-61
2021/12/29 05:42:42;;;;;;;4.70;4.30;;;8.00;99.90;;;;;;5018740;28;20491;-61
2021/12/29 05:45:12;;;;;;;6.00;4.73;;;8.00;99.90;;;;;;5017910;28;20464;-61
2021/12/29 05:47:39;;;;;;;5.33;4.80;;;8.00;99.90;;;;;;5019127;28;20483;-58
2021/12/29 05:50:09;;;;;;;6.20;4.80;;;8.00;99.90;;;;;;5019671;28;20886;-59
2021/12/29 05:52:36;;;;;;;5.47;4.43;;;8.00;99.90;;;;;;5019298;28;20461;-61
2021/12/29 05:55:06;;;;;;;8.73;7.90;;;8.00;99.90;;;;;;5018218;28;20824;-59
2021/12/29 05:57:33;;;;;;;8.70;7.80;;;8.00;99.90;;;;;;5019138;28;20468;-61
2021/12/29 06:00:01;;;;;;;9.40;8.50;;;8.00;99.90;;;;;;5019250;28;20468;-60
2021/12/29 06:02:28;;;;;;;10.53;9.53;;;8.00;99.90;;;;;;5019119;28;20928;-61
2021/12/29 06:04:55;;;;;;;11.20;10.10;;;8.10;99.90;;;;;;5018392;28;20466;-60
2021/12/29 06:07:22;;;;;;;12.57;10.27;;;8.00;99.90;;;;;;5018917;28;20897;-62
2021/12/29 06:09:49;;;;;;;12.00;10.83;;;8.00;99.90;;;;;;5049756;28;20520;-62
2021/12/29 06:12:17;;;;;;;15.73;11.13;;;8.00;99.90;;;;;;5045092;28;20501;-61
2021/12/29 06:14:45;;;;;;;13.17;11.87;;;8.00;99.90;;;;;;5055157;28;20486;-61
2021/12/29 06:17:12;;;;;;;12.37;11.07;;;8.00;99.90;;;;;;5057893;28;20801;-61
2021/12/29 06:19:40;;;;;;;14.13;12.33;;;8.00;99.90;;;;;;5057741;28;20462;-62
2021/12/29 06:22:10;;;;;;;14.20;12.60;;;7.90;99.90;;;;;;5057251;28;20458;-62
2021/12/29 06:24:37;;;;;;;15.50;13.77;;;8.00;99.90;;;;;;5057536;28;20450;-62
2021/12/29 06:27:05;;;;;;;18.63;14.47;;;8.00;99.90;;;;;;5057200;28;20454;-62
2021/12/29 06:29:33;;;;;;;16.57;13.90;;;8.00;99.90;;;;;;5053768;28;20592;-61
2021/12/29 06:32:02;;;;;;;17.27;15.20;;;8.00;99.90;;;;;;5056946;28;20512;-60
2021/12/29 06:34:30;;;;;;;17.83;14.60;;;7.90;99.90;;;;;;5054591;28;20549;-61
2021/12/29 06:36:58;;;;;;;15.40;13.27;;;8.00;99.90;;;;;;5056296;28;20535;-61
2021/12/29 06:39:25;;;;;;;16.10;14.40;;;7.90;99.90;;;;;;5056191;28;20458;-61
2021/12/29 06:41:52;;;;;;;20.37;14.23;;;7.90;99.90;;;;;;5056677;28;20469;-62
2021/12/29 06:44:19;;;;;;;17.50;14.50;;;8.00;99.90;;;;;;5056266;28;21010;-61
2021/12/29 06:46:47;;;;;;;17.93;14.00;;;7.90;99.90;;;;;;5056415;28;20458;-59
2021/12/29 06:49:14;;;;;;;17.77;14.90;;;7.90;99.90;;;;;;5056014;28;20485;-62
2021/12/29 06:51:42;;;;;;;18.13;14.40;;;7.90;99.90;;;;;;5056029;28;20512;-62
2021/12/29 06:54:09;;;;;;;20.60;14.47;;;7.90;99.90;;;;;;5055859;28;20455;-61
2021/12/29 06:56:36;;;;;;;18.63;14.67;;;7.90;99.90;;;;;;5052341;28;20892;-62
2021/12/29 06:59:03;;;;;;;19.10;15.30;;;7.90;99.90;;;;;;5055744;28;20767;-61
2021/12/29 07:01:33;;;;;;;17.20;14.93;;;7.90;99.90;;;;;;5055557;28;20820;-60
2021/12/29 07:04:03;;;;;;;17.97;15.30;;;7.90;99.90;;;;;;5052950;28;20501;-59
2021/12/29 07:06:30;;;;;;;21.00;16.57;;;7.90;99.90;;;;;;5055907;28;20470;-60
2021/12/29 07:08:57;;;;;;;19.13;14.90;;;7.90;99.90;;;;;;5055107;28;20536;-59
2021/12/29 07:11:24;;;;;;;20.93;16.13;;;8.00;99.90;;;;;;5055745;28;20501;-60
2021/12/29 07:13:51;;;;;;;17.90;14.07;;;8.00;99.90;;;;;;5056078;28;20508;-62
2021/12/29 07:16:18;;;;;;;19.80;16.10;;;7.90;99.90;;;;;;5055505;28;20973;-62
2021/12/29 07:18:48;;;;;;;16.10;14.03;;;8.00;99.90;;;;;;5055290;28;20524;-59
2021/12/29 07:21:20;;;;;;;17.20;14.47;;;8.00;99.90;;;;;;5055571;28;20473;-62
2021/12/29 07:23:47;;;;;;;15.67;13.37;;;7.90;99.90;;;;;;5055591;28;20489;-61
2021/12/29 07:26:14;;;;;;;16.63;14.83;;;8.00;99.90;;;;;;5055023;28;20469;-61
2021/12/29 07:28:41;;;;;;;17.60;14.90;;;8.00;99.90;;;;;;5053065;28;20512;-61
2021/12/29 07:31:08;;;;;;;17.50;14.47;;;8.00;99.90;;;;;;5055539;28;20573;-59
2021/12/29 07:33:35;;;;;;;20.57;14.90;;;7.90;99.90;;;;;;5055476;28;20458;-61
2021/12/29 07:36:08;;;;;;;19.33;14.83;;;8.00;99.90;;;;;;5055276;28;20454;-60
2021/12/29 07:38:37;;;;;;;20.90;14.87;;;7.90;99.90;;;;;;5055150;28;20809;-61
2021/12/29 07:41:04;;;;;;;17.33;15.03;;;8.00;99.90;;;;;;5056204;28;20458;-58
2021/12/29 07:43:31;;;;;;;17.37;13.50;;;7.90;99.90;;;;;;5055500;28;20486;-58
2021/12/29 07:46:01;;;;;;;18.80;15.90;;;8.00;99.90;;;;;;5055969;28;20469;-60
2021/12/29 07:48:30;;;;;;;17.97;16.07;;;8.00;99.90;;;;;;5055865;28;20751;-60
2021/12/29 07:50:57;;;;;;;17.77;15.87;;;8.00;99.90;;;;;;5055579;28;20474;-60
2021/12/29 07:53:24;;;;;;;19.60;16.43;;;8.00;99.90;;;;;;5056365;28;20470;-61
2021/12/29 07:55:56;;;;;;;19.20;15.10;;;8.00;99.90;;;;;;5056744;28;20463;-62
2021/12/29 07:58:23;;;;;;;20.77;17.53;;;8.00;99.90;;;;;;5056512;28;20466;-61
2021/12/29 08:00:51;;;;;;;25.10;18.27;;;8.00;99.90;;;;;;5055769;28;20883;-61
2021/12/29 08:03:19;;;;;;;22.60;18.17;;;7.90;99.90;;;;;;5056443;28;20555;-61
2021/12/29 08:05:46;;;;;;;24.87;19.00;;;8.00;99.90;;;;;;5056701;28;20462;-59
2021/12/29 08:08:19;;;;;;;23.93;19.27;;;8.00;99.90;;;;;;5055965;28;20470;-58
2021/12/29 08:10:46;;;;;;;21.50;18.00;;;8.00;99.90;;;;;;5056280;28;20803;-59
2021/12/29 08:13:19;;;;;;;23.30;19.57;;;8.00;99.90;;;;;;5056146;28;20508;-61
2021/12/29 08:15:48;;;;;;;26.63;19.60;;;8.00;99.90;;;;;;5055820;28;20458;-58
2021/12/29 08:18:15;;;;;;;27.10;20.50;;;8.00;99.90;;;;;;5056261;28;20829;-56
2021/12/29 08:20:47;;;;;;;24.63;20.87;;;8.00;99.90;;;;;;5059478;28;20513;-61
2021/12/29 08:23:14;;;;;;;29.90;21.10;;;8.00;99.90;;;;;;5059219;28;20857;-61
2021/12/29 08:25:41;;;;;;;24.97;20.50;;;8.00;99.90;;;;;;5060035;28;20472;-61
2021/12/29 08:28:12;;;;;;;28.33;21.40;;;8.00;99.90;;;;;;5059312;28;20895;-61
2021/12/29 08:30:41;;;;;;;30.73;23.67;;;8.00;99.90;;;;;;5057080;28;20892;-58
2021/12/29 08:33:08;;;;;;;30.03;21.87;;;8.00;99.90;;;;;;5059517;28;20462;-61
2021/12/29 08:35:38;;;;;;;30.03;23.10;;;8.10;99.90;;;;;;5059841;28;20523;-61
2021/12/29 08:38:07;;;;;;;26.57;22.97;;;8.00;99.90;;;;;;5059229;28;20516;-61
2021/12/29 08:40:34;;;;;;;33.10;24.27;;;8.00;99.90;;;;;;5059626;28;20458;-59
2021/12/29 08:43:03;;;;;;;28.70;21.70;;;8.10;99.90;;;;;;5060397;28;20457;-57
2021/12/29 08:45:30;;;;;;;27.23;22.67;;;8.00;99.90;;;;;;5060137;28;20463;-60
2021/12/29 08:48:02;;;;;;;32.67;24.07;;;8.10;99.90;;;;;;5059381;28;20528;-60
2021/12/29 08:50:32;;;;;;;30.23;24.70;;;8.10;99.90;;;;;;5059956;28;20466;-61
2021/12/29 08:53:03;;;;;;;29.63;22.10;;;8.10;99.90;;;;;;5059954;28;20868;-61
2021/12/29 08:55:32;;;;;;;28.40;23.00;;;8.10;99.90;;;;;;5059552;28;20536;-57
2021/12/29 08:58:00;;;;;;;37.40;23.43;;;8.20;99.90;;;;;;5059342;28;20466;-61
2021/12/29 09:00:28;;;;;;;32.03;22.97;;;8.10;99.90;;;;;;5058983;28;20497;-59
2021/12/29 09:02:55;;;;;;;33.83;26.20;;;8.20;99.90;;;;;;5058076;28;20474;-58
2021/12/29 09:05:24;;;;;;;37.20;24.43;;;8.20;99.90;;;;;;5058087;28;20494;-61
2021/12/29 09:07:54;;;;;;;30.73;22.07;;;8.20;99.90;;;;;;5058301;28;20465;-60
2021/12/29 09:10:22;;;;;;;29.67;23.20;;;8.20;99.90;;;;;;5058203;28;20919;-60
2021/12/29 09:12:51;;;;;;;33.93;21.30;;;8.20;99.90;;;;;;5057050;28;20515;-61
2021/12/29 09:15:20;;;;;;;25.93;20.67;;;8.30;99.90;;;;;;5057806;28;20454;-61
2021/12/29 09:17:47;;;;;;;28.53;23.80;;;8.30;99.90;;;;;;5058257;28;20458;-61
2021/12/29 09:20:24;;;;;;;28.60;21.27;;;8.30;99.90;;;;;;5058408;28;20476;-61
2021/12/29 09:22:52;;;;;;;25.30;20.20;;;8.30;99.90;;;;;;5058835;28;20879;-61
2021/12/29 09:25:20;;;;;;;27.07;20.87;;;8.40;99.90;;;;;;5058943;28;20497;-61
2021/12/29 09:27:49;;;;;;;27.40;20.60;;;8.30;99.90;;;;;;5059078;28;20871;-61
2021/12/29 09:30:18;;;;;;;23.37;19.63;;;8.40;99.90;;;;;;5058224;28;20552;-60
2021/12/29 09:32:46;;;;;;;25.90;19.63;;;8.40;99.90;;;;;;5058903;28;20465;-61
2021/12/29 09:35:16;;;;;;;21.77;18.87;;;8.40;99.90;;;;;;5058923;28;20469;-60
2021/12/29 09:37:44;;;;;;;22.23;18.13;;;8.40;99.90;;;;;;5059109;28;20505;-60
2021/12/29 09:40:13;;;;;;;24.00;19.17;;;8.40;99.90;;;;;;5058586;28;20491;-62
2021/12/29 09:42:42;;;;;;;23.27;18.90;;;8.40;99.90;;;;;;5058757;28;20462;-62
2021/12/29 09:45:10;;;;;;;22.87;16.83;;;8.40;99.90;;;;;;5058822;28;20580;-62
2021/12/29 09:47:38;;;;;;;20.77;18.20;;;8.40;99.90;;;;;;5058908;28;20524;-62
2021/12/29 09:50:09;;;;;;;21.10;17.23;;;8.30;99.90;;;;;;5058427;28;20470;-62
2021/12/29 09:52:39;;;;;;;19.20;16.20;;;8.40;99.90;;;;;;5058480;28;20527;-62
2021/12/29 09:55:15;;;;;;;21.47;16.50;;;8.50;99.90;;;;;;5057023;28;20497;-62
2021/12/29 09:57:45;;;;;;;17.93;15.53;;;8.50;99.90;;;;;;5058702;28;20803;-62
2021/12/29 10:00:21;;;;;;;20.03;16.23;;;8.50;99.90;;;;;;5056823;28;20539;-62
2021/12/29 10:02:48;;;;;;;20.97;15.13;;;8.50;99.90;;;;;;5051236;28;20473;-62
2021/12/29 10:05:16;;;;;;;14.63;13.13;;;8.50;99.90;;;;;;5054512;28;20535;-61
2021/12/29 10:07:43;;;;;;;22.33;14.67;;;8.50;99.90;;;;;;5058477;28;20469;-62
2021/12/29 10:10:18;;;;;;;17.00;13.80;;;8.60;99.90;;;;;;5058021;28;20499;-61
2021/12/29 10:12:46;;;;;;;17.93;14.57;;;8.60;99.90;;;;;;5057357;28;20457;-62
2021/12/29 10:15:13;;;;;;;14.87;13.37;;;8.60;99.90;;;;;;5057787;28;20462;-62
2021/12/29 10:17:40;;;;;;;15.20;13.00;;;8.60;99.90;;;;;;5056257;28;20466;-60
2021/12/29 10:20:10;;;;;;;15.73;13.20;;;8.70;99.90;;;;;;5056903;28;20512;-62
2021/12/29 10:22:41;;;;;;;17.53;12.53;;;8.70;99.90;;;;;;5057626;28;20462;-62
2021/12/29 10:25:11;;;;;;;17.60;12.37;;;8.80;99.90;;;;;;5057779;28;20576;-62
2021/12/29 10:27:41;;;;;;;17.70;12.70;;;8.80;99.90;;;;;;5058037;28;20799;-60
2021/12/29 10:30:19;;;;;;;14.00;12.47;;;8.70;99.90;;;;;;5056680;28;20463;-62
2021/12/29 10:32:49;;;;;;;13.63;12.23;;;8.70;99.90;;;;;;5057297;28;20462;-62
2021/12/29 10:35:25;;;;;;;13.47;12.03;;;8.70;99.90;;;;;;5057658;28;20493;-61
2021/12/29 10:37:54;;;;;;;14.60;13.20;;;8.80;99.90;;;;;;5056677;28;20519;-62
2021/12/29 10:40:28;;;;;;;14.20;11.20;;;8.90;99.90;;;;;;5055943;28;20432;-62
2021/12/29 10:43:01;;;;;;;14.43;12.13;;;8.90;99.90;;;;;;5055995;28;20552;-62
2021/12/29 10:45:33;;;;;;;13.50;12.10;;;9.00;99.90;;;;;;5056800;28;20547;-61
2021/12/29 10:48:00;;;;;;;15.23;12.30;;;9.10;99.90;;;;;;5056256;28;20511;-62
2021/12/29 10:50:28;;;;;;;17.70;11.53;;;9.20;99.90;;;;;;5057424;28;20458;-62
2021/12/29 10:53:01;;;;;;;12.30;9.97;;;9.20;99.90;;;;;;5057169;28;20956;-62
2021/12/29 10:55:36;;;;;;;12.70;11.50;;;9.30;99.90;;;;;;5050113;28;20508;-62
2021/12/29 10:58:14;;;;;;;11.30;10.10;;;9.50;99.90;;;;;;5056308;28;20535;-62
2021/12/29 11:00:47;;;;;;;12.50;10.63;;;9.50;99.90;;;;;;5057421;28;20532;-62
2021/12/29 11:03:18;;;;;;;11.37;10.27;;;9.60;99.90;;;;;;5057085;28;20493;-62
2021/12/29 11:05:48;;;;;;;10.77;9.70;;;9.80;99.90;;;;;;5057763;28;20485;-62
2021/12/29 11:08:17;;;;;;;11.17;9.70;;;10.00;99.90;;;;;;5057199;28;20895;-62
2021/12/29 11:11:01;;;;;;;9.90;8.83;;;10.00;99.90;;;;;;5055451;28;20903;-63
2021/12/29 11:13:31;;;;;;;12.97;9.97;;;10.10;99.90;;;;;;5051653;28;20520;-62
2021/12/29 11:15:59;;;;;;;11.63;9.10;;;10.20;99.90;;;;;;5055332;28;20454;-62
2021/12/29 11:18:39;;;;;;;10.60;9.30;;;10.30;99.90;;;;;;5057010;28;20846;-62
2021/12/29 11:21:06;;;;;;;9.80;8.30;;;10.30;99.90;;;;;;5056350;28;20810;-62
2021/12/29 11:23:35;;;;;;;9.80;8.80;;;10.10;99.90;;;;;;5056906;28;20457;-62
2021/12/29 11:26:05;;;;;;;16.60;9.20;;;10.10;99.90;;;;;;5056509;28;20502;-63
2021/12/29 11:28:36;;;;;;;10.20;9.20;;;10.00;99.90;;;;;;5056270;28;20516;-63
2021/12/29 11:31:08;;;;;;;9.60;8.70;;;9.90;99.90;;;;;;5056778;28;20519;-63
2021/12/29 11:33:36;;;;;;;11.40;9.03;;;9.80;99.90;;;;;;5055975;28;20903;-63
2021/12/29 11:36:09;;;;;;;9.43;8.53;;;9.80;99.90;;;;;;5056504;28;20447;-63
2021/12/29 11:38:36;;;;;;;10.07;8.90;;;9.90;99.90;;;;;;5056285;28;20466;-63
2021/12/29 11:41:05;;;;;;;8.97;8.07;;;10.10;99.90;;;;;;5056686;28;20490;-63
2021/12/29 11:43:34;;;;;;;10.20;9.20;;;10.20;99.90;;;;;;5056793;28;20556;-63
2021/12/29 11:46:01;;;;;;;10.03;8.37;;;10.20;99.90;;;;;;5056235;28;20493;-63
2021/12/29 11:48:28;;;;;;;10.50;9.00;;;10.20;99.90;;;;;;5056282;28;20466;-63
2021/12/29 11:50:58;;;;;;;8.77;7.97;;;10.30;99.90;;;;;;5056470;28;21184;-63
2021/12/29 11:53:34;;;;;;;11.60;9.10;;;10.20;99.90;;;;;;5056095;28;20527;-63
2021/12/29 11:56:03;;;;;;;10.10;9.10;;;10.20;99.90;;;;;;5056649;28;20458;-63
2021/12/29 11:58:41;;;;;;;11.10;9.87;;;10.20;99.90;;;;;;5055709;28;20462;-62
2021/12/29 12:01:12;;;;;;;11.17;10.13;;;10.10;99.90;;;;;;5056677;28;20517;-62
2021/12/29 12:03:50;;;;;;;12.20;10.53;;;9.80;99.90;;;;;;5056111;28;20508;-62
2021/12/29 12:06:25;;;;;;;12.40;11.17;;;9.80;99.90;;;;;;5056278;28;20817;-62
2021/12/29 12:09:06;;;;;;;11.30;10.10;;;9.80;99.90;;;;;;5054956;28;20939;-62
2021/12/29 12:11:35;;;;;;;14.93;11.97;;;9.70;99.90;;;;;;5052070;28;20458;-62
2021/12/29 12:14:17;;;;;;;13.50;11.10;;;9.60;99.90;;;;;;5054625;28;20466;-61
2021/12/29 12:16:52;;;;;;;12.03;10.83;;;9.60;99.90;;;;;;5055721;28;20516;-62
2021/12/29 12:19:25;;;;;;;15.00;11.17;;;9.50;99.90;;;;;;5055351;28;20440;-59
2021/12/29 12:22:05;;;;;;;15.13;11.30;;;9.50;99.90;;;;;;5056089;28;20765;-62
2021/12/29 12:24:37;;;;;;;13.67;11.23;;;9.50;99.90;;;;;;5055557;28;20460;-62
2021/12/29 12:27:11;;;;;;;12.53;11.03;;;9.50;99.90;;;;;;5055567;28;20466;-62
2021/12/29 12:29:41;;;;;;;13.77;11.10;;;9.30;99.90;;;;;;5055646;28;20902;-61
2021/12/29 12:32:13;;;;;;;15.10;11.77;;;9.30;99.90;;;;;;5055459;28;20477;-62
2021/12/29 12:34:57;;;;;;;17.40;12.40;;;9.20;99.90;;;;;;5054757;28;20466;-60
2021/12/29 12:37:33;;;;;;;15.43;10.70;;;9.10;99.90;;;;;;5055560;28;20461;-61
2021/12/29 12:40:06;;;;;;;16.80;11.10;;;9.00;99.90;;;;;;5049031;28;20465;-62
2021/12/29 12:42:34;;;;;;;11.73;9.73;;;9.00;99.90;;;;;;5038166;28;20887;-62
2021/12/29 12:45:03;;;;;;;11.33;9.73;;;9.00;99.90;;;;;;5054608;28;20593;-62
2021/12/29 12:47:32;;;;;;;11.90;9.47;;;8.90;99.90;;;;;;5055665;28;20512;-62
2021/12/29 12:50:00;;;;;;;14.20;10.10;;;8.90;99.90;;;;;;5054487;28;20545;-62
2021/12/29 12:52:42;;;;;;;16.17;9.87;;;8.90;99.90;;;;;;5054870;28;20470;-62
2021/12/29 12:55:11;;;;;;;13.90;9.97;;;8.80;99.90;;;;;;5055404;28;20454;-62
2021/12/29 12:57:40;;;;;;;15.53;10.90;;;8.80;99.90;;;;;;5055336;28;20462;-62
2021/12/29 13:00:13;;;;;;;11.57;10.07;;;8.80;99.90;;;;;;5054701;28;20469;-62
2021/12/29 13:02:43;;;;;;;12.00;10.20;;;8.80;99.90;;;;;;5054576;28;20454;-62
2021/12/29 13:05:15;;;;;;;15.17;10.77;;;8.80;99.90;;;;;;5056927;28;20497;-61